Time;durP1;ratioP1;P1;durP2;ratioP2;P2;SDS_P1;SDS_P2;PMS_P1;PMS_P2;Temp;Humidity;BMP_temperature;BMP_pressure;BME280_temperature;BME280_humidity;BME280_pressure;Samples;Min_cycle;Max_cycle;Signal;HPM_P1;HPM_P2
2022/03/01 00:02:15;;;;;;;6.38;2.58;;;8.50;96.70;;;;;;4987455;28;20642;-81
2022/03/01 00:04:44;;;;;;;4.70;2.95;;;8.40;96.70;;;;;;4990071;28;20112;-79
2022/03/01 00:07:14;;;;;;;4.20;2.70;;;8.40;96.70;;;;;;4991055;28;20073;-79
2022/03/01 00:09:42;;;;;;;6.70;2.67;;;8.40;96.70;;;;;;5005335;28;20036;-80
2022/03/01 00:12:10;;;;;;;6.70;2.72;;;8.40;96.70;;;;;;4984269;28;20046;-80
2022/03/01 00:14:39;;;;;;;4.90;2.72;;;8.40;96.70;;;;;;4990063;28;20042;-79
2022/03/01 00:17:07;;;;;;;5.15;2.58;;;8.40;96.70;;;;;;4978703;28;20124;-78
2022/03/01 00:19:35;;;;;;;5.03;2.45;;;8.40;96.70;;;;;;5000510;28;20046;-81
2022/03/01 00:22:03;;;;;;;4.68;2.70;;;8.40;96.40;;;;;;4985113;28;20049;-80
2022/03/01 00:24:36;;;;;;;6.53;2.75;;;8.40;96.50;;;;;;4996994;28;20486;-78
2022/03/01 00:27:05;;;;;;;5.75;2.47;;;8.40;96.40;;;;;;4988215;28;20058;-79
2022/03/01 00:29:35;;;;;;;6.30;2.50;;;8.30;96.70;;;;;;4989042;28;20100;-78
2022/03/01 00:32:04;;;;;;;7.70;2.30;;;8.30;96.70;;;;;;4971479;28;20129;-79
2022/03/01 00:34:33;;;;;;;4.50;2.20;;;8.30;96.70;;;;;;5000460;28;20496;-80
2022/03/01 00:37:01;;;;;;;4.45;2.15;;;8.30;96.70;;;;;;4984754;28;20046;-80
2022/03/01 00:39:29;;;;;;;6.30;2.70;;;8.40;96.70;;;;;;4985747;28;20065;-79
2022/03/01 00:41:59;;;;;;;5.85;2.55;;;8.30;96.50;;;;;;4984643;28;20070;-80
2022/03/01 00:44:27;;;;;;;4.30;2.42;;;8.20;96.20;;;;;;4989865;28;20262;-79
2022/03/01 00:46:56;;;;;;;4.97;2.80;;;8.20;96.50;;;;;;4985804;28;20049;-80
2022/03/01 00:49:24;;;;;;;3.83;2.00;;;8.10;96.40;;;;;;5004270;28;20728;-79
2022/03/01 00:51:52;;;;;;;7.47;2.75;;;8.20;96.70;;;;;;4986505;28;20096;-80
2022/03/01 00:54:21;;;;;;;3.80;1.88;;;8.10;96.20;;;;;;4984428;28;20128;-80
2022/03/01 00:56:51;;;;;;;5.13;2.60;;;8.10;96.20;;;;;;4984584;28;20042;-80
2022/03/01 00:59:21;;;;;;;3.30;2.05;;;8.10;96.10;;;;;;5005012;28;20060;-80
2022/03/01 01:01:50;;;;;;;6.38;2.00;;;8.10;96.20;;;;;;4988280;28;20113;-80
2022/03/01 01:04:18;;;;;;;5.63;2.08;;;8.10;96.00;;;;;;5006603;28;21198;-79
2022/03/01 01:06:46;;;;;;;5.40;1.73;;;8.20;96.10;;;;;;4985958;28;20046;-80
2022/03/01 01:09:14;;;;;;;4.18;2.22;;;8.10;95.60;;;;;;4979420;28;20061;-80
2022/03/01 01:11:43;;;;;;;5.20;2.15;;;8.10;94.90;;;;;;4982381;28;20147;-78
2022/03/01 01:14:11;;;;;;;3.00;1.77;;;8.20;95.20;;;;;;4977174;28;20058;-80
2022/03/01 01:16:41;;;;;;;4.03;1.80;;;8.10;94.90;;;;;;4986882;28;20128;-79
2022/03/01 01:19:12;;;;;;;6.03;2.58;;;8.20;94.70;;;;;;4984859;28;20142;-78
2022/03/01 01:24:27;;;;;;;3.92;1.98;;;8.20;94.60;;;;;;4995196;28;20046;-80
2022/03/01 01:26:55;;;;;;;4.93;1.85;;;8.10;94.60;;;;;;4984488;28;20057;-80
2022/03/01 01:29:23;;;;;;;4.50;1.85;;;8.20;94.70;;;;;;4987383;28;20512;-81
2022/03/01 01:31:53;;;;;;;4.45;2.00;;;8.10;94.10;;;;;;4988164;28;20069;-80
2022/03/01 01:34:21;;;;;;;3.55;1.75;;;8.10;94.50;;;;;;4983946;28;20162;-78
2022/03/01 01:36:49;;;;;;;3.20;2.00;;;8.00;94.80;;;;;;4999514;28;20073;-80
2022/03/01 01:39:17;;;;;;;4.93;2.42;;;8.00;93.80;;;;;;5002840;28;20121;-81
2022/03/01 01:41:45;;;;;;;3.38;1.63;;;7.90;93.50;;;;;;4983183;28;20039;-80
2022/03/01 01:44:14;;;;;;;4.45;1.80;;;8.00;93.40;;;;;;4987603;28;20042;-81
2022/03/01 01:46:42;;;;;;;4.72;2.05;;;7.90;93.10;;;;;;4982611;28;20046;-80
2022/03/01 01:49:13;;;;;;;5.15;2.22;;;7.90;93.30;;;;;;4984084;28;20058;-80
2022/03/01 01:51:41;;;;;;;4.32;2.15;;;7.90;93.00;;;;;;5001665;28;20492;-80
2022/03/01 01:54:09;;;;;;;3.58;2.10;;;7.90;93.00;;;;;;4983187;28;20053;-78
2022/03/01 01:56:38;;;;;;;4.20;1.80;;;7.80;93.30;;;;;;4985619;28;20042;-80
2022/03/01 01:59:06;;;;;;;4.55;1.70;;;7.80;93.60;;;;;;4970310;28;20133;-80
2022/03/01 02:01:34;;;;;;;3.40;1.55;;;7.80;93.80;;;;;;4986418;28;20054;-80
2022/03/01 02:04:03;;;;;;;3.00;1.63;;;7.80;93.80;;;;;;4985562;28;20037;-79
2022/03/01 02:06:36;;;;;;;5.20;1.70;;;7.80;93.70;;;;;;5003151;28;20045;-79
2022/03/01 02:09:04;;;;;;;3.20;1.50;;;7.80;93.90;;;;;;4984028;28;20053;-78
2022/03/01 02:11:33;;;;;;;3.33;1.60;;;7.70;93.60;;;;;;5005280;28;20042;-80
2022/03/01 02:14:02;;;;;;;3.75;1.83;;;7.70;93.70;;;;;;4982458;28;21018;-80
2022/03/01 02:16:30;;;;;;;4.15;1.83;;;7.60;94.00;;;;;;4983895;28;20038;-79
2022/03/01 02:18:59;;;;;;;3.72;1.70;;;7.50;94.20;;;;;;4997422;28;20156;-80
2022/03/01 02:21:31;;;;;;;3.80;1.65;;;7.50;94.20;;;;;;4989077;28;20046;-80
2022/03/01 02:23:59;;;;;;;3.22;1.58;;;7.50;94.00;;;;;;4993261;28;20065;-80
2022/03/01 02:26:30;;;;;;;3.08;2.00;;;7.50;94.20;;;;;;4983984;28;20618;-80
2022/03/01 02:28:58;;;;;;;2.53;1.58;;;7.50;94.70;;;;;;4968561;28;20042;-79
2022/03/01 02:31:26;;;;;;;3.20;1.63;;;7.50;94.10;;;;;;4989707;28;20085;-79
2022/03/01 02:33:54;;;;;;;3.13;1.80;;;7.40;94.30;;;;;;4991510;28;20046;-78
2022/03/01 02:36:23;;;;;;;3.58;1.70;;;7.40;94.80;;;;;;4990547;28;20557;-79
2022/03/01 02:38:52;;;;;;;3.08;1.63;;;7.30;94.40;;;;;;4985841;28;20062;-79
2022/03/01 02:41:21;;;;;;;3.08;1.63;;;7.40;94.20;;;;;;5003524;28;20069;-79
2022/03/01 02:43:49;;;;;;;3.78;1.60;;;7.30;93.80;;;;;;4980889;28;20074;-80
2022/03/01 02:46:17;;;;;;;2.70;1.92;;;7.30;93.50;;;;;;4992179;28;20049;-80
2022/03/01 02:48:45;;;;;;;3.42;1.50;;;7.40;93.30;;;;;;4987488;28;20054;-80
2022/03/01 02:51:14;;;;;;;2.42;1.55;;;7.40;92.60;;;;;;4985657;28;20054;-79
2022/03/01 02:53:42;;;;;;;3.95;1.80;;;7.40;92.80;;;;;;4999454;28;20398;-79
2022/03/01 02:56:12;;;;;;;6.03;1.80;;;7.30;92.90;;;;;;4987279;28;20051;-79
2022/03/01 02:58:40;;;;;;;3.47;1.50;;;7.30;92.30;;;;;;4986658;28;20058;-80
2022/03/01 03:01:08;;;;;;;3.08;1.77;;;7.40;92.10;;;;;;4999520;28;20122;-79
2022/03/01 03:03:37;;;;;;;2.72;1.65;;;7.40;92.30;;;;;;5001801;28;20419;-79
2022/03/01 03:06:05;;;;;;;3.53;1.67;;;7.30;92.30;;;;;;4985023;28;20112;-80
2022/03/01 03:08:33;;;;;;;4.75;2.00;;;7.40;92.90;;;;;;4982032;28;20189;-80
2022/03/01 03:11:02;;;;;;;3.67;2.00;;;7.30;93.10;;;;;;4984460;28;20034;-79
2022/03/01 03:13:31;;;;;;;4.22;1.70;;;7.30;92.90;;;;;;4986248;28;20038;-80
2022/03/01 03:16:00;;;;;;;3.47;1.60;;;7.30;93.20;;;;;;4968487;28;20050;-79
2022/03/01 03:18:28;;;;;;;4.72;1.95;;;7.20;93.70;;;;;;4982917;28;20134;-79
2022/03/01 03:21:01;;;;;;;3.63;1.67;;;7.20;94.00;;;;;;4986853;28;20632;-79
2022/03/01 03:23:30;;;;;;;3.60;1.80;;;7.20;94.30;;;;;;4990502;28;20039;-78
2022/03/01 03:25:58;;;;;;;3.38;1.70;;;7.10;94.50;;;;;;5002932;28;20050;-80
2022/03/01 03:28:26;;;;;;;3.25;1.83;;;7.10;94.50;;;;;;4983987;28;20061;-79
2022/03/01 03:30:56;;;;;;;5.55;1.85;;;7.10;94.80;;;;;;4988000;28;20157;-79
2022/03/01 03:33:24;;;;;;;4.82;2.17;;;7.10;94.90;;;;;;4989906;28;20145;-80
2022/03/01 03:35:56;;;;;;;2.83;1.60;;;7.10;95.10;;;;;;5002670;28;20050;-78
2022/03/01 03:38:25;;;;;;;3.72;1.73;;;7.10;95.10;;;;;;4995488;28;20078;-77
2022/03/01 03:40:53;;;;;;;2.50;1.60;;;7.10;95.20;;;;;;4986992;28;20038;-79
2022/03/01 03:43:22;;;;;;;3.97;2.08;;;7.00;95.20;;;;;;5001720;28;20100;-78
2022/03/01 03:45:52;;;;;;;5.13;1.63;;;7.00;95.50;;;;;;4988735;28;20128;-78
2022/03/01 03:48:22;;;;;;;4.43;1.60;;;7.00;95.60;;;;;;5003099;28;20054;-79
2022/03/01 03:50:50;;;;;;;3.63;1.83;;;6.90;95.70;;;;;;4985174;28;20065;-80
2022/03/01 03:53:19;;;;;;;3.92;1.70;;;7.00;95.80;;;;;;4997442;28;20054;-79
2022/03/01 03:55:47;;;;;;;4.63;1.75;;;6.90;96.00;;;;;;4985523;28;20579;-82
2022/03/01 03:58:15;;;;;;;3.35;1.70;;;6.90;96.00;;;;;;4987086;28;20127;-79
2022/03/01 04:00:43;;;;;;;3.15;2.00;;;6.90;95.90;;;;;;4987058;28;20046;-78
2022/03/01 04:03:11;;;;;;;2.83;1.92;;;6.90;96.20;;;;;;4988815;28;20061;-79
2022/03/01 04:05:41;;;;;;;3.53;1.95;;;6.90;96.30;;;;;;5004293;28;20155;-78
2022/03/01 04:08:13;;;;;;;3.28;1.77;;;6.80;96.60;;;;;;4970382;28;20077;-79
2022/03/01 04:10:41;;;;;;;4.80;1.73;;;6.80;96.70;;;;;;4987937;28;20460;-80
2022/03/01 04:13:09;;;;;;;3.13;1.80;;;6.70;96.70;;;;;;4989036;28;20046;-80
2022/03/01 04:15:38;;;;;;;2.90;1.63;;;6.70;96.70;;;;;;4991783;28;20042;-79
2022/03/01 04:18:07;;;;;;;3.22;1.70;;;6.70;96.70;;;;;;4986550;28;20061;-83
2022/03/01 04:20:35;;;;;;;4.25;2.08;;;6.60;96.70;;;;;;5002142;28;20053;-84
2022/03/01 04:23:05;;;;;;;4.88;1.60;;;6.60;96.70;;;;;;4996120;28;20050;-83
2022/03/01 04:25:34;;;;;;;4.22;1.85;;;6.60;96.70;;;;;;4989520;28;20040;-83
2022/03/01 04:28:03;;;;;;;4.47;1.88;;;6.60;96.70;;;;;;5005367;28;20057;-83
2022/03/01 04:30:31;;;;;;;3.90;1.65;;;6.70;96.50;;;;;;5010671;28;20129;-83
2022/03/01 04:32:59;;;;;;;4.32;1.85;;;6.60;96.60;;;;;;4989214;28;20100;-81
2022/03/01 04:35:30;;;;;;;4.05;1.77;;;6.60;96.70;;;;;;4992555;28;20038;-81
2022/03/01 04:37:59;;;;;;;4.65;1.92;;;6.60;96.70;;;;;;4991770;28;20058;-81
2022/03/01 04:40:28;;;;;;;3.35;1.38;;;6.70;96.70;;;;;;4996605;28;20060;-81
2022/03/01 04:42:57;;;;;;;5.30;2.17;;;6.80;96.70;;;;;;4989702;28;20873;-81
2022/03/01 04:45:32;;;;;;;3.90;1.90;;;6.70;96.60;;;;;;4974296;28;20659;-81
2022/03/01 04:48:00;;;;;;;2.33;1.65;;;6.50;96.50;;;;;;5007431;28;20088;-81
2022/03/01 04:50:29;;;;;;;5.47;1.70;;;6.50;96.70;;;;;;4992471;28;20042;-80
2022/03/01 04:52:57;;;;;;;4.80;1.80;;;6.40;96.70;;;;;;5004106;28;20451;-81
2022/03/01 04:55:26;;;;;;;4.25;1.85;;;6.30;96.70;;;;;;5006129;28;20049;-81
2022/03/01 04:57:56;;;;;;;3.25;1.83;;;6.10;96.70;;;;;;4989399;28;20065;-81
2022/03/01 05:00:25;;;;;;;3.88;1.98;;;6.20;96.70;;;;;;4987203;28;20508;-81
2022/03/01 05:02:54;;;;;;;9.13;2.03;;;6.20;96.70;;;;;;5004063;28;20077;-81
2022/03/01 05:05:23;;;;;;;2.20;1.60;;;6.20;96.70;;;;;;4979503;28;20042;-80
2022/03/01 05:07:51;;;;;;;4.57;1.60;;;6.10;96.70;;;;;;5010874;28;20045;-81
2022/03/01 05:10:21;;;;;;;2.78;1.58;;;6.30;96.70;;;;;;4997045;28;20520;-81
2022/03/01 05:12:52;;;;;;;5.35;2.78;;;6.10;96.70;;;;;;4982341;28;20042;-80
2022/03/01 05:15:23;;;;;;;4.60;2.08;;;6.20;96.70;;;;;;4991749;28;20053;-81
2022/03/01 05:17:52;;;;;;;3.45;1.83;;;6.10;96.70;;;;;;4996175;28;20050;-81
2022/03/01 05:20:21;;;;;;;3.05;1.67;;;6.20;96.70;;;;;;5003484;28;20042;-81
2022/03/01 05:22:50;;;;;;;2.17;1.50;;;6.20;96.70;;;;;;5004030;28;20042;-82
2022/03/01 05:25:20;;;;;;;3.60;1.55;;;6.20;96.70;;;;;;4989036;28;20512;-80
2022/03/01 05:27:50;;;;;;;2.58;1.65;;;6.40;96.70;;;;;;5002357;28;20041;-81
2022/03/01 05:30:22;;;;;;;2.88;1.40;;;6.40;96.30;;;;;;5009763;28;20049;-81
2022/03/01 05:32:51;;;;;;;2.67;1.52;;;6.40;96.40;;;;;;5003926;28;20082;-81
2022/03/01 05:35:21;;;;;;;4.60;1.83;;;6.40;95.80;;;;;;5001025;28;20060;-80
2022/03/01 05:37:52;;;;;;;3.17;1.48;;;6.40;95.90;;;;;;4988182;28;20065;-80
2022/03/01 05:40:23;;;;;;;3.97;2.30;;;6.40;96.00;;;;;;5003347;28;20504;-80
2022/03/01 05:42:52;;;;;;;3.08;1.67;;;6.40;96.10;;;;;;4990115;28;20080;-81
2022/03/01 05:45:22;;;;;;;5.40;1.70;;;6.30;96.40;;;;;;4989425;28;20081;-82
2022/03/01 05:47:51;;;;;;;3.90;1.40;;;6.30;96.50;;;;;;5009074;28;20054;-82
2022/03/01 05:50:20;;;;;;;3.38;1.65;;;6.20;96.70;;;;;;4993915;28;20038;-82
2022/03/01 05:52:50;;;;;;;3.22;1.60;;;6.20;96.70;;;;;;5012287;28;20054;-81
2022/03/01 05:55:19;;;;;;;3.63;1.60;;;6.20;96.70;;;;;;4989640;28;20042;-83
2022/03/01 05:57:47;;;;;;;2.20;1.35;;;6.20;96.70;;;;;;4995944;28;20137;-82
2022/03/01 06:00:17;;;;;;;2.38;1.50;;;6.20;96.70;;;;;;4986090;28;20538;-82
2022/03/01 06:02:49;;;;;;;2.50;1.42;;;6.20;96.70;;;;;;4998220;28;20133;-82
2022/03/01 06:05:25;;;;;;;2.92;1.50;;;6.20;96.70;;;;;;4995089;28;20046;-81
2022/03/01 06:07:55;;;;;;;2.42;1.40;;;6.20;96.70;;;;;;4995958;28;20049;-82
2022/03/01 06:10:24;;;;;;;3.45;1.40;;;6.20;96.70;;;;;;5006474;28;20540;-82
2022/03/01 06:12:53;;;;;;;4.07;1.92;;;6.20;96.70;;;;;;5005696;28;20492;-82
2022/03/01 06:15:22;;;;;;;4.47;1.58;;;6.20;96.70;;;;;;4984588;28;20067;-82
2022/03/01 06:17:52;;;;;;;4.20;1.92;;;6.20;96.70;;;;;;4991803;28;20070;-82
2022/03/01 06:20:21;;;;;;;3.78;2.53;;;6.20;96.70;;;;;;5002761;28;20074;-82
2022/03/01 06:22:49;;;;;;;3.00;1.63;;;6.20;96.70;;;;;;4987541;28;20116;-82
2022/03/01 06:25:21;;;;;;;5.10;1.73;;;6.30;96.70;;;;;;5004179;28;20089;-82
2022/03/01 06:27:52;;;;;;;3.97;1.70;;;6.20;96.70;;;;;;5004422;28;20042;-82
2022/03/01 06:30:23;;;;;;;4.47;1.60;;;6.10;96.70;;;;;;4980505;28;20516;-82
2022/03/01 06:32:52;;;;;;;4.53;1.88;;;6.20;96.70;;;;;;5002120;28;20708;-82
2022/03/01 06:35:21;;;;;;;3.25;1.98;;;6.20;96.70;;;;;;4988324;28;20057;-82
2022/03/01 06:37:53;;;;;;;3.17;1.80;;;6.20;96.70;;;;;;4993794;28;20054;-82
2022/03/01 06:40:21;;;;;;;4.07;2.03;;;6.30;96.70;;;;;;4992929;28;20054;-82
2022/03/01 06:42:50;;;;;;;6.07;1.98;;;6.30;96.70;;;;;;5005672;28;20042;-82
2022/03/01 06:45:19;;;;;;;4.00;1.65;;;6.30;96.70;;;;;;5002834;28;20133;-82
2022/03/01 06:47:48;;;;;;;3.67;1.75;;;6.40;96.70;;;;;;5001276;28;20046;-82
2022/03/01 06:50:18;;;;;;;4.38;1.75;;;6.30;96.70;;;;;;4981786;28;20046;-82
2022/03/01 06:52:46;;;;;;;3.55;2.00;;;6.40;96.70;;;;;;5003198;28;20121;-82
2022/03/01 06:55:15;;;;;;;2.63;1.50;;;6.30;96.70;;;;;;4988441;28;20046;-82
2022/03/01 06:57:44;;;;;;;4.85;2.17;;;6.40;96.70;;;;;;5005595;28;20038;-82
2022/03/01 07:00:14;;;;;;;6.97;2.00;;;6.50;96.70;;;;;;5005287;28;20049;-82
2022/03/01 07:02:43;;;;;;;4.07;1.60;;;6.40;96.70;;;;;;4985090;28;20046;-82
2022/03/01 07:05:14;;;;;;;3.80;1.80;;;6.50;96.70;;;;;;4984250;28;20050;-83
2022/03/01 07:07:44;;;;;;;5.25;2.03;;;6.50;96.70;;;;;;4986211;28;20519;-82
2022/03/01 07:10:14;;;;;;;2.72;1.33;;;6.60;96.70;;;;;;4997198;28;20559;-82
2022/03/01 07:12:43;;;;;;;3.20;2.03;;;6.60;96.70;;;;;;4992185;28;20102;-82
2022/03/01 07:15:12;;;;;;;2.95;1.60;;;6.80;96.70;;;;;;5008565;28;20512;-83
2022/03/01 07:17:44;;;;;;;5.80;2.20;;;6.90;96.70;;;;;;4989126;28;20078;-82
2022/03/01 07:20:14;;;;;;;3.70;1.80;;;6.80;96.70;;;;;;5004770;28;20527;-82
2022/03/01 07:22:44;;;;;;;4.75;2.22;;;6.90;96.70;;;;;;5005887;28;20081;-82
2022/03/01 07:25:14;;;;;;;2.42;1.67;;;7.00;96.70;;;;;;4994847;28;20046;-82
2022/03/01 07:27:49;;;;;;;3.65;2.15;;;7.00;96.70;;;;;;4997404;28;20093;-82
2022/03/01 07:30:18;;;;;;;3.88;1.85;;;7.10;96.70;;;;;;4991900;28;20042;-82
2022/03/01 07:32:46;;;;;;;5.45;2.08;;;7.20;96.70;;;;;;5003147;28;20046;-82
2022/03/01 07:35:15;;;;;;;6.82;2.03;;;7.30;96.70;;;;;;4991761;28;20504;-82
2022/03/01 07:37:50;;;;;;;3.75;2.17;;;7.30;96.70;;;;;;4989638;28;20042;-83
2022/03/01 07:40:20;;;;;;;3.53;1.85;;;7.30;96.70;;;;;;4989514;28;20101;-82
2022/03/01 07:42:50;;;;;;;5.65;1.70;;;7.40;96.70;;;;;;4991117;28;20100;-82
2022/03/01 07:45:19;;;;;;;3.70;1.90;;;7.40;96.70;;;;;;5006679;28;20065;-82
2022/03/01 07:47:51;;;;;;;3.33;2.17;;;7.40;96.70;;;;;;5006095;28;20104;-85
2022/03/01 07:50:20;;;;;;;4.43;2.05;;;7.50;96.70;;;;;;5005122;28;20030;-85
2022/03/01 07:52:52;;;;;;;5.50;2.05;;;7.60;96.70;;;;;;4990720;28;20106;-85
2022/03/01 07:55:22;;;;;;;3.17;2.13;;;7.60;96.70;;;;;;5005287;28;20054;-85
2022/03/01 07:57:52;;;;;;;3.60;2.03;;;7.70;96.50;;;;;;4988645;28;20507;-83
2022/03/01 08:00:24;;;;;;;3.22;2.17;;;7.70;96.70;;;;;;4989277;28;20077;-80
2022/03/01 08:02:52;;;;;;;4.57;1.90;;;7.80;96.70;;;;;;5007093;28;20047;-80
2022/03/01 08:05:22;;;;;;;3.55;2.17;;;7.80;96.40;;;;;;5013413;28;20080;-80
2022/03/01 08:07:58;;;;;;;6.72;1.95;;;7.80;96.60;;;;;;4986225;28;20074;-80
2022/03/01 08:10:27;;;;;;;3.97;1.88;;;7.80;96.30;;;;;;4987732;28;20089;-79
2022/03/01 08:12:56;;;;;;;3.40;2.35;;;7.80;96.20;;;;;;5003521;28;20050;-80
2022/03/01 08:15:26;;;;;;;2.50;1.75;;;7.90;96.40;;;;;;4989708;28;20590;-80
2022/03/01 08:17:56;;;;;;;4.28;2.58;;;8.00;96.30;;;;;;4979902;28;20206;-81
2022/03/01 08:20:25;;;;;;;2.83;1.88;;;8.00;95.30;;;;;;4996004;28;20184;-82
2022/03/01 08:22:58;;;;;;;5.60;2.10;;;7.90;95.40;;;;;;4990884;28;20146;-83
2022/03/01 08:25:27;;;;;;;3.00;1.63;;;7.80;95.20;;;;;;4996960;28;20045;-82
2022/03/01 08:27:58;;;;;;;3.50;2.00;;;7.80;96.20;;;;;;4994095;28;20046;-84
2022/03/01 08:30:31;;;;;;;5.57;2.08;;;7.90;96.00;;;;;;4992352;28;20039;-83
2022/03/01 08:33:01;;;;;;;2.70;1.90;;;8.00;95.50;;;;;;4988695;28;20046;-83
2022/03/01 08:35:32;;;;;;;2.90;1.63;;;8.00;95.30;;;;;;4996456;28;20046;-83
2022/03/01 08:38:06;;;;;;;3.30;1.73;;;7.90;95.90;;;;;;5005157;28;20057;-84
2022/03/01 08:40:39;;;;;;;2.67;1.63;;;7.90;95.40;;;;;;4989208;28;20042;-84
2022/03/01 08:43:09;;;;;;;3.40;1.83;;;8.00;95.20;;;;;;4992224;28;20034;-84
2022/03/01 08:45:44;;;;;;;5.82;2.10;;;8.00;95.40;;;;;;5007465;28;20054;-84
2022/03/01 08:48:12;;;;;;;2.92;1.75;;;8.10;94.90;;;;;;5005989;28;20109;-84
2022/03/01 08:50:41;;;;;;;4.32;2.33;;;8.20;95.20;;;;;;5004690;28;20042;-84
2022/03/01 08:53:19;;;;;;;3.15;1.80;;;8.20;94.60;;;;;;4988235;28;20038;-84
2022/03/01 08:55:48;;;;;;;3.75;2.00;;;8.20;94.50;;;;;;4988136;28;20038;-82
2022/03/01 08:58:16;;;;;;;4.72;1.63;;;8.30;95.00;;;;;;4992431;28;20489;-84
2022/03/01 09:00:45;;;;;;;5.45;2.17;;;8.30;94.70;;;;;;4992092;28;20050;-84
2022/03/01 09:03:13;;;;;;;7.75;1.98;;;8.40;94.90;;;;;;5001064;28;20140;-83
2022/03/01 09:06:05;;;;;;;2.97;2.00;;;8.50;95.10;;;;;;4989600;28;20050;-84
2022/03/01 09:08:40;;;;;;;5.25;2.30;;;8.60;94.60;;;;;;5003319;28;20089;-84
2022/03/01 09:11:09;;;;;;;4.47;1.98;;;8.60;94.90;;;;;;5004845;28;20047;-83
2022/03/01 09:13:38;;;;;;;4.57;2.30;;;8.70;95.70;;;;;;4990080;28;20537;-84
2022/03/01 09:16:07;;;;;;;5.85;2.40;;;8.70;95.40;;;;;;4988523;28;20043;-84
2022/03/01 09:18:36;;;;;;;3.67;2.00;;;8.80;94.80;;;;;;4986944;28;20038;-84
2022/03/01 09:21:05;;;;;;;4.20;1.90;;;8.80;94.60;;;;;;4994787;28;20511;-83
2022/03/01 09:23:41;;;;;;;5.97;2.13;;;8.80;94.70;;;;;;4988721;28;20118;-84
2022/03/01 09:26:10;;;;;;;3.53;1.88;;;8.80;94.60;;;;;;5004780;28;20346;-83
2022/03/01 09:28:38;;;;;;;3.47;2.15;;;8.80;94.30;;;;;;4985137;28;20105;-79
2022/03/01 09:31:07;;;;;;;3.58;1.75;;;8.90;94.20;;;;;;4984295;28;20076;-80
2022/03/01 09:33:42;;;;;;;5.80;2.20;;;8.90;94.20;;;;;;4992605;28;20393;-80
2022/03/01 09:36:12;;;;;;;3.20;1.83;;;8.90;93.90;;;;;;4988390;28;20042;-81
2022/03/01 09:38:43;;;;;;;4.22;1.90;;;9.10;94.60;;;;;;4989675;28;20038;-78
2022/03/01 09:41:12;;;;;;;4.15;2.28;;;9.10;94.30;;;;;;4987120;28;20050;-81
2022/03/01 09:43:41;;;;;;;4.82;2.22;;;9.20;94.00;;;;;;4992071;28;20599;-79
2022/03/01 09:46:15;;;;;;;7.32;2.97;;;9.20;93.40;;;;;;4985412;28;20050;-79
2022/03/01 09:48:44;;;;;;;4.65;2.03;;;9.20;92.80;;;;;;4980519;28;20050;-81
2022/03/01 09:51:13;;;;;;;5.28;2.55;;;9.20;92.40;;;;;;4987524;28;20164;-79
2022/03/01 09:53:43;;;;;;;7.25;2.58;;;9.40;93.00;;;;;;4990465;28;20133;-78
2022/03/01 09:56:12;;;;;;;4.38;2.45;;;9.40;92.10;;;;;;4984453;28;20117;-78
2022/03/01 09:58:40;;;;;;;4.03;2.00;;;9.40;91.80;;;;;;4983901;28;20046;-77
2022/03/01 10:01:09;;;;;;;3.45;2.40;;;9.50;91.90;;;;;;4982975;28;20042;-78
2022/03/01 10:03:38;;;;;;;7.40;2.10;;;9.60;91.60;;;;;;4992355;28;20042;-78
2022/03/01 10:06:08;;;;;;;7.63;2.28;;;9.60;91.40;;;;;;4985037;28;20096;-81
2022/03/01 10:08:40;;;;;;;4.00;2.22;;;9.60;91.00;;;;;;5004448;28;20058;-79
2022/03/01 10:11:10;;;;;;;6.35;2.38;;;9.70;90.90;;;;;;4984408;28;20046;-79
2022/03/01 10:13:41;;;;;;;3.05;1.90;;;9.80;90.90;;;;;;4981191;28;20038;-79
2022/03/01 10:16:10;;;;;;;7.47;2.08;;;9.80;90.50;;;;;;4992760;28;20038;-79
2022/03/01 10:18:43;;;;;;;4.82;2.00;;;9.90;90.30;;;;;;5002682;28;20042;-80
2022/03/01 10:21:12;;;;;;;4.75;2.03;;;9.90;90.60;;;;;;4993368;28;20056;-79
2022/03/01 10:23:49;;;;;;;4.68;2.17;;;9.90;91.30;;;;;;4984508;28;20069;-80
2022/03/01 10:26:20;;;;;;;4.43;2.05;;;10.00;90.30;;;;;;4987172;28;20053;-79
2022/03/01 10:28:50;;;;;;;3.55;2.30;;;10.00;90.30;;;;;;4983253;28;20053;-79
2022/03/01 10:31:22;;;;;;;3.72;2.13;;;10.10;90.60;;;;;;4986105;28;20587;-81
2022/03/01 10:33:56;;;;;;;3.08;2.00;;;10.20;90.10;;;;;;5003866;28;20851;-78
2022/03/01 10:36:27;;;;;;;4.70;2.20;;;10.30;89.90;;;;;;5000787;28;20053;-80
2022/03/01 10:39:01;;;;;;;5.05;2.80;;;10.30;89.60;;;;;;4983750;28;20105;-80
2022/03/01 10:41:32;;;;;;;3.97;2.42;;;10.30;89.20;;;;;;4987164;28;20499;-81
2022/03/01 10:44:03;;;;;;;3.63;2.10;;;10.30;89.30;;;;;;4993673;28;20112;-83
2022/03/01 10:46:38;;;;;;;4.60;2.22;;;10.10;88.90;;;;;;4982443;28;20050;-81
2022/03/01 10:49:11;;;;;;;5.55;2.50;;;10.10;88.90;;;;;;5006776;28;20120;-82
2022/03/01 10:51:48;;;;;;;3.65;1.98;;;10.40;89.50;;;;;;4991135;28;20052;-82
2022/03/01 10:54:28;;;;;;;4.10;2.47;;;10.40;88.80;;;;;;4993278;28;20054;-80
2022/03/01 10:56:58;;;;;;;5.55;2.22;;;10.40;88.60;;;;;;4994592;28;20054;-81
2022/03/01 10:59:28;;;;;;;5.30;1.95;;;10.60;89.10;;;;;;4991448;28;20515;-82
2022/03/01 11:01:57;;;;;;;5.38;2.63;;;10.80;89.10;;;;;;4999366;28;20058;-81
2022/03/01 11:04:26;;;;;;;5.10;2.47;;;10.90;88.20;;;;;;4990171;28;20504;-81
2022/03/01 11:06:56;;;;;;;6.15;2.10;;;10.90;87.90;;;;;;4990528;28;20050;-80
2022/03/01 11:09:27;;;;;;;4.32;2.78;;;10.90;87.80;;;;;;4999356;28;20292;-83
2022/03/01 11:11:58;;;;;;;3.67;2.55;;;10.90;87.10;;;;;;4998317;28;20599;-82
2022/03/01 11:14:30;;;;;;;3.67;2.65;;;11.00;87.30;;;;;;5014308;28;20124;-80
2022/03/01 11:17:08;;;;;;;6.93;2.28;;;11.10;87.30;;;;;;4975704;28;20156;-80
2022/03/01 11:19:46;;;;;;;3.13;2.03;;;11.30;87.30;;;;;;5007196;28;20054;-81
2022/03/01 11:22:21;;;;;;;2.92;2.25;;;11.30;86.60;;;;;;4996550;28;20056;-80
2022/03/01 11:24:50;;;;;;;3.28;2.35;;;11.50;86.90;;;;;;5006386;28;20066;-77
2022/03/01 11:27:24;;;;;;;3.92;2.72;;;11.70;87.00;;;;;;5009297;28;20142;-80
2022/03/01 11:30:03;;;;;;;4.07;2.25;;;11.70;86.00;;;;;;4990532;28;20638;-78
2022/03/01 11:32:44;;;;;;;4.05;2.85;;;11.70;85.30;;;;;;5013194;28;20057;-81
2022/03/01 11:35:18;;;;;;;4.22;2.30;;;11.80;85.80;;;;;;4992612;28;20077;-81
2022/03/01 11:37:57;;;;;;;3.25;2.38;;;11.90;85.40;;;;;;5010868;28;20046;-79
2022/03/01 11:40:29;;;;;;;5.15;2.53;;;12.10;86.20;;;;;;4994041;28;20050;-81
2022/03/01 11:43:09;;;;;;;3.63;2.42;;;12.10;85.00;;;;;;4988784;28;20129;-80
2022/03/01 11:45:38;;;;;;;3.17;2.45;;;12.20;84.80;;;;;;4978528;28;20049;-80
2022/03/01 11:48:13;;;;;;;5.15;2.25;;;12.20;84.00;;;;;;5005817;28;20073;-82
2022/03/01 11:50:44;;;;;;;4.32;2.20;;;12.30;84.50;;;;;;4974303;28;20050;-78
2022/03/01 11:53:15;;;;;;;4.55;2.55;;;12.40;84.80;;;;;;4986941;28;20069;-80
2022/03/01 11:55:46;;;;;;;2.95;2.05;;;12.50;85.20;;;;;;4989150;28;20044;-80
2022/03/01 11:58:17;;;;;;;4.28;2.30;;;12.70;85.50;;;;;;4990637;28;20134;-81
2022/03/01 12:00:47;;;;;;;3.72;2.30;;;12.70;84.60;;;;;;5007356;28;20491;-79
2022/03/01 12:03:18;;;;;;;3.15;1.95;;;12.80;83.10;;;;;;4995584;28;20541;-81
2022/03/01 12:05:48;;;;;;;2.97;2.40;;;12.90;83.40;;;;;;4971226;28;20074;-81
2022/03/01 12:08:17;;;;;;;5.00;1.90;;;12.80;83.10;;;;;;4987455;28;20042;-81
2022/03/01 12:10:56;;;;;;;3.38;2.13;;;12.90;82.80;;;;;;4986209;28;20690;-80
2022/03/01 12:13:36;;;;;;;3.65;2.38;;;13.00;82.90;;;;;;5004320;28;20459;-77
2022/03/01 12:16:05;;;;;;;2.63;2.13;;;13.10;82.80;;;;;;5005097;28;20046;-81
2022/03/01 12:18:35;;;;;;;3.08;2.00;;;12.90;82.20;;;;;;4989032;28;21420;-82
2022/03/01 12:21:08;;;;;;;3.70;2.13;;;12.90;82.50;;;;;;4986712;28;20073;-80
2022/03/01 12:23:39;;;;;;;3.72;2.90;;;13.20;83.00;;;;;;5005041;28;20080;-80
2022/03/01 12:26:09;;;;;;;4.20;2.40;;;13.20;80.90;;;;;;4993530;28;20894;-80
2022/03/01 12:28:41;;;;;;;3.53;2.55;;;13.00;80.70;;;;;;5008077;28;20054;-78
2022/03/01 12:31:11;;;;;;;4.03;2.63;;;12.90;81.00;;;;;;4991227;28;20097;-79
2022/03/01 12:33:48;;;;;;;3.58;2.28;;;13.10;81.20;;;;;;4969413;28;20165;-79
2022/03/01 12:36:26;;;;;;;4.45;2.58;;;13.00;80.50;;;;;;4989654;28;20046;-79
2022/03/01 12:38:56;;;;;;;2.97;2.38;;;13.10;80.30;;;;;;4984136;28;20058;-79
2022/03/01 12:41:25;;;;;;;3.88;2.08;;;13.10;80.70;;;;;;4992316;28;20831;-79
2022/03/01 12:43:58;;;;;;;2.63;2.03;;;13.30;79.90;;;;;;4985946;28;21011;-79
2022/03/01 12:46:28;;;;;;;2.35;2.00;;;13.40;79.40;;;;;;4991956;28;20046;-79
2022/03/01 12:48:57;;;;;;;2.75;2.08;;;13.50;79.90;;;;;;4988070;28;20055;-79
2022/03/01 12:51:27;;;;;;;3.97;2.50;;;13.60;79.70;;;;;;4983563;28;20551;-79
2022/03/01 12:53:57;;;;;;;2.90;2.20;;;13.70;80.60;;;;;;4986190;28;20066;-78
2022/03/01 12:56:27;;;;;;;3.25;2.65;;;13.70;79.80;;;;;;4987617;28;20042;-80
2022/03/01 12:59:03;;;;;;;2.53;2.03;;;13.80;79.80;;;;;;4982114;28;20077;-80
2022/03/01 13:01:32;;;;;;;2.95;2.15;;;13.90;78.30;;;;;;4984193;28;20042;-78
2022/03/01 13:04:00;;;;;;;2.53;2.17;;;14.00;78.30;;;;;;4995667;28;20046;-79
2022/03/01 13:06:31;;;;;;;4.32;2.65;;;14.10;77.60;;;;;;4991477;28;20050;-78
2022/03/01 13:08:59;;;;;;;4.25;2.25;;;14.00;78.00;;;;;;5003523;28;20046;-80
2022/03/01 13:11:27;;;;;;;2.72;1.88;;;14.00;77.50;;;;;;4984029;28;20046;-78
2022/03/01 13:14:00;;;;;;;2.10;1.90;;;14.00;77.60;;;;;;4985484;28;20125;-79